createdAt,value
2022-07-26T00:04:05.444Z,4.742898
2022-07-26T00:09:07.135Z,5.328642
2022-07-26T00:14:09.427Z,5.359974
2022-07-26T00:19:11.135Z,4.641102
2022-07-26T00:24:12.693Z,4.744938
2022-07-26T00:29:14.660Z,4.39558
2022-07-26T00:34:16.217Z,4.704624
2022-07-26T00:39:18.223Z,3.57096
2022-07-26T00:44:20.286Z,3.465784
2022-07-26T00:49:21.759Z,4.610194
2022-07-26T00:54:23.294Z,4.277456
2022-07-26T00:59:24.877Z,5.33863
2022-07-26T01:04:26.392Z,5.76565
2022-07-26T01:09:27.804Z,4.731546
2022-07-26T01:14:30.015Z,4.858662
2022-07-26T01:19:31.769Z,5.302154
2022-07-26T01:24:33.344Z,6.349368
2022-07-26T01:29:36.378Z,6.052806
2022-07-26T01:34:38.178Z,5.637986
2022-07-26T01:39:39.827Z,5.681232
2022-07-26T01:44:41.578Z,4.927638
2022-07-26T01:49:43.192Z,4.607262
2022-07-26T01:54:44.717Z,5.622544
2022-07-26T01:59:46.455Z,5.948226
2022-07-26T02:04:48.012Z,5.57106
2022-07-26T02:09:49.658Z,5.42793
2022-07-26T02:14:51.615Z,5.015756
2022-07-26T02:19:53.284Z,5.227576
2022-07-26T02:24:54.757Z,4.361908
2022-07-26T02:29:56.379Z,5.271408
2022-07-26T02:34:57.830Z,5.129308
2022-07-26T02:39:59.366Z,4.035634
2022-07-26T02:45:01.364Z,3.501078
2022-07-26T02:50:02.835Z,3.106424
2022-07-26T02:55:04.254Z,3.734376
2022-07-26T03:00:05.717Z,3.408412
2022-07-26T03:05:07.250Z,3.388994
2022-07-26T03:10:08.702Z,3.866464
2022-07-26T03:15:10.432Z,3.71481
2022-07-26T03:20:11.987Z,3.99532
2022-07-26T03:25:13.666Z,2.74736
2022-07-26T03:30:15.213Z,3.755262
2022-07-26T03:35:16.647Z,3.691716
2022-07-26T03:40:18.302Z,2.663666
2022-07-26T03:45:20.115Z,2.194882
2022-07-26T03:50:21.601Z,2.924906
2022-07-26T03:55:23.055Z,3.371044
2022-07-26T04:00:24.910Z,2.308578
2022-07-26T04:05:26.435Z,2.24475
2022-07-26T04:10:29.686Z,2.955056
2022-07-26T04:15:31.469Z,2.908582
2022-07-26T04:20:32.929Z,2.738244
2022-07-26T04:25:38.620Z,3.737908
2022-07-26T04:30:43.194Z,2.66175
2022-07-26T04:35:44.885Z,3.55404
2022-07-26T04:40:46.490Z,2.684848
2022-07-26T04:45:48.387Z,2.8465
2022-07-26T04:50:49.923Z,2.959032
2022-07-26T04:55:51.346Z,3.037438
2022-07-26T05:01:10.293Z,2.40758
2022-07-26T05:06:12.361Z,2.930494
2022-07-26T05:11:13.799Z,3.56521
2022-07-26T05:16:15.478Z,3.957518
2022-07-26T05:21:16.966Z,3.518884
2022-07-26T05:26:18.442Z,3.767176
2022-07-26T05:31:20.496Z,3.593162
2022-07-26T05:36:22.039Z,3.26337
2022-07-26T05:41:23.501Z,3.751734
2022-07-26T05:46:25.418Z,3.41562
2022-07-26T05:51:27.146Z,3.529916
2022-07-26T05:56:29.384Z,3.389876
2022-07-26T06:01:30.873Z,4.476766
2022-07-26T06:06:34.549Z,4.646222
2022-07-26T06:11:36.164Z,4.233766
2022-07-26T06:16:39.057Z,4.53738
2022-07-26T06:21:40.549Z,5.29464
2022-07-26T06:26:42.087Z,5.164454
2022-07-26T06:31:43.783Z,5.303908
2022-07-26T06:36:45.297Z,5.551036
2022-07-26T06:41:46.760Z,6.439512
2022-07-26T06:46:48.432Z,6.3523
2022-07-26T06:51:49.968Z,7.690484
2022-07-26T06:56:51.745Z,7.36966
2022-07-26T07:01:58.996Z,8.016042
2022-07-26T07:07:01.771Z,8.85309
2022-07-26T07:12:10.390Z,9.303394
2022-07-26T07:17:15.950Z,8.423248
2022-07-26T07:22:20.094Z,8.331898
2022-07-26T07:27:21.862Z,9.81989
2022-07-26T07:32:24.804Z,9.189804
2022-07-26T07:37:27.949Z,10.253274
2022-07-26T07:42:54.741Z,10.782742
2022-07-26T07:47:56.383Z,11.880042
2022-07-26T07:52:59.206Z,12.855122
2022-07-26T07:58:01.041Z,12.517932
2022-07-26T08:03:02.649Z,12.51264
2022-07-26T08:08:04.095Z,12.374164
2022-07-26T08:13:09.526Z,12.487048
2022-07-26T08:18:12.916Z,14.013526
2022-07-26T08:23:15.669Z,13.781378
2022-07-26T08:28:37.508Z,13.726314
2022-07-26T08:33:40.777Z,14.86089
2022-07-26T08:38:42.540Z,15.119254
2022-07-26T08:43:51.879Z,15.431462
2022-07-26T08:48:55.711Z,14.051914
2022-07-26T08:54:04.141Z,15.524142
2022-07-26T08:59:07.580Z,15.851182
2022-07-26T09:04:09.605Z,17.853506
2022-07-26T09:09:11.576Z,17.066214
2022-07-26T09:14:13.167Z,16.64226
2022-07-26T09:19:15.168Z,17.23358
2022-07-26T09:24:16.608Z,16.35255
2022-07-26T09:29:18.025Z,17.54032
2022-07-26T09:34:20.159Z,17.744054
2022-07-26T09:39:22.850Z,16.69495
2022-07-26T09:44:37.491Z,17.474386
2022-07-26T09:49:49.817Z,17.69101
2022-07-26T09:54:51.405Z,18.476186
2022-07-26T09:59:53.062Z,19.093832
2022-07-26T10:04:54.831Z,18.464272
2022-07-26T10:09:56.297Z,18.772518
2022-07-26T10:14:59.509Z,19.327052
2022-07-26T10:20:01.575Z,19.154488
2022-07-26T10:25:03.136Z,17.73815
2022-07-26T10:30:04.605Z,18.672334
2022-07-26T10:35:06.084Z,19.283806
2022-07-26T10:40:07.739Z,20.09452
2022-07-26T10:45:09.199Z,19.766218
2022-07-26T10:50:11.350Z,19.920246
2022-07-26T10:55:12.843Z,19.222458
2022-07-26T11:00:14.744Z,20.014256
2022-07-26T11:05:16.257Z,19.470496
2022-07-26T11:10:18.015Z,20.17933
2022-07-26T11:15:19.521Z,20.080204
2022-07-26T11:20:24.213Z,20.390242
2022-07-26T11:25:29.088Z,20.98653
2022-07-26T11:30:30.541Z,19.525412
2022-07-26T11:35:32.167Z,20.02788
2022-07-26T11:40:33.593Z,17.760826
2022-07-26T11:45:35.144Z,19.767982
2022-07-26T11:50:36.784Z,20.127182
2022-07-26T11:55:38.237Z,19.782216
2022-07-26T12:00:39.730Z,20.113816
2022-07-26T12:05:41.524Z,19.82933
2022-07-26T12:10:43.060Z,19.904804
2022-07-26T12:15:44.975Z,19.545346
2022-07-26T12:20:50.619Z,19.654296
2022-07-26T12:25:54.667Z,20.027066
2022-07-26T12:30:56.203Z,19.80903
2022-07-26T12:35:57.757Z,19.895468
2022-07-26T12:40:59.237Z,20.247748
2022-07-26T12:46:00.757Z,19.945852
2022-07-26T12:51:03.135Z,20.14314
2022-07-26T12:56:04.691Z,19.97428
2022-07-26T13:01:06.194Z,20.155502
2022-07-26T13:06:07.848Z,20.752156
2022-07-26T13:11:09.255Z,20.396674
2022-07-26T13:16:12.256Z,20.349818
2022-07-26T13:21:14.657Z,20.201774
2022-07-26T13:26:16.064Z,20.138472
2022-07-26T13:31:18.107Z,19.66849
2022-07-26T13:36:19.847Z,19.40121
2022-07-26T13:41:21.310Z,19.244956
2022-07-26T13:46:23.107Z,19.480388
2022-07-26T13:51:25.167Z,19.540678
2022-07-26T13:56:26.778Z,19.51993
2022-07-26T14:01:43.026Z,19.082976
2022-07-26T14:06:46.594Z,19.02251
2022-07-26T14:11:48.353Z,19.508016
2022-07-26T14:16:50.143Z,19.455054
2022-07-26T14:22:00.157Z,19.171952
2022-07-26T14:27:02.877Z,19.12473
2022-07-26T14:32:04.625Z,19.12226
2022-07-26T14:37:41.647Z,19.189348
2022-07-26T14:42:46.382Z,19.161544
2022-07-26T14:47:47.836Z,18.665454
2022-07-26T14:52:49.453Z,18.214388
2022-07-26T14:57:51.011Z,18.85038
2022-07-26T15:02:52.580Z,18.322252
2022-07-26T15:07:54.203Z,18.533042
2022-07-26T15:12:55.643Z,18.020004
2022-07-26T15:17:57.081Z,18.065638
2022-07-26T15:22:58.939Z,17.76092
2022-07-26T15:28:00.592Z,17.459038
2022-07-26T15:33:02.156Z,16.95387
2022-07-26T15:38:03.730Z,16.257928
2022-07-26T15:43:05.217Z,16.180256
2022-07-26T15:48:14.866Z,15.43773
2022-07-26T15:53:19.063Z,15.374618
2022-07-26T15:58:20.510Z,15.512132
2022-07-26T16:03:21.946Z,15.10168
2022-07-26T16:08:23.446Z,14.181488
2022-07-26T16:13:25.099Z,14.003714
2022-07-26T16:18:26.745Z,14.099936
2022-07-26T16:23:28.646Z,13.846254
2022-07-26T16:28:30.109Z,13.462738
2022-07-26T16:33:31.644Z,13.702104
2022-07-26T16:38:34.358Z,12.845744
2022-07-26T16:43:35.811Z,13.076562
2022-07-26T16:48:37.566Z,12.635402
2022-07-26T16:53:39.500Z,12.869572
2022-07-26T16:58:41.117Z,13.422572
2022-07-26T17:03:42.599Z,11.802002
2022-07-26T17:08:44.366Z,12.120304
2022-07-26T17:13:46.016Z,12.418644
2022-07-26T17:18:47.761Z,12.83569
2022-07-26T17:23:49.689Z,12.401762
2022-07-26T17:28:51.082Z,12.82687
2022-07-26T17:33:52.511Z,12.048262
2022-07-26T17:38:54.701Z,12.404246
2022-07-26T17:43:56.486Z,12.55077
2022-07-26T17:48:58.034Z,11.73193
2022-07-26T17:53:59.808Z,11.63032
2022-07-26T17:59:01.234Z,11.62838
2022-07-26T18:04:02.835Z,11.830174
2022-07-26T18:09:04.573Z,11.582598
2022-07-26T18:14:06.324Z,11.71041
2022-07-26T18:19:07.988Z,12.328162
2022-07-26T18:24:16.947Z,12.341678
2022-07-26T18:29:19.121Z,11.835642
2022-07-26T18:34:20.736Z,11.759124
2022-07-26T18:39:22.478Z,11.57261
2022-07-26T18:44:23.999Z,11.905648
2022-07-26T18:49:31.215Z,11.844138
2022-07-26T18:54:33.394Z,12.161448
2022-07-26T18:59:34.900Z,11.731482
2022-07-26T19:04:36.500Z,12.034518
2022-07-26T19:09:38.150Z,11.805626
2022-07-26T19:14:39.558Z,11.847394
2022-07-26T19:19:41.025Z,11.53642
2022-07-26T19:24:42.753Z,11.97697
2022-07-26T19:29:44.216Z,11.750738
2022-07-26T19:34:45.696Z,12.181476
2022-07-26T19:39:47.595Z,11.467568
2022-07-26T19:44:49.022Z,11.484788
2022-07-26T19:49:50.531Z,11.31118
2022-07-26T19:54:53.263Z,10.951058
2022-07-26T19:59:54.929Z,10.910892
2022-07-26T20:04:56.433Z,11.055924
2022-07-26T20:09:57.994Z,10.203282
2022-07-26T20:14:59.768Z,9.974242
2022-07-26T20:20:01.165Z,9.798922
2022-07-26T20:25:03.350Z,9.481016
2022-07-26T20:30:05.105Z,9.517478
2022-07-26T20:35:06.545Z,9.616332
2022-07-26T20:40:09.305Z,9.279604
2022-07-26T20:45:11.365Z,9.730752
2022-07-26T20:50:14.480Z,8.967152
2022-07-26T20:55:16.214Z,9.468044
2022-07-26T21:00:17.871Z,9.259304
2022-07-26T21:05:19.445Z,9.840638
2022-07-26T21:10:21.079Z,9.269454
2022-07-26T21:15:22.712Z,9.445384
2022-07-26T21:20:24.338Z,9.583346
2022-07-26T21:25:26.252Z,9.436998
2022-07-26T21:30:27.659Z,9.599236
2022-07-26T21:35:29.330Z,8.963462
2022-07-26T21:40:30.774Z,7.849542
2022-07-26T21:45:32.425Z,8.554478
2022-07-26T21:50:34.063Z,8.688926
2022-07-26T21:55:35.968Z,8.57638
2022-07-26T22:00:37.509Z,8.12537
2022-07-26T22:05:39.282Z,8.51978
2022-07-26T22:10:44.097Z,8.386786
2022-07-26T22:15:45.969Z,8.356932
2022-07-26T22:20:47.563Z,8.237902
2022-07-26T22:25:49.297Z,8.353528
2022-07-26T22:30:50.963Z,8.534626
2022-07-26T22:35:52.400Z,8.632436
2022-07-26T22:40:53.893Z,8.225988
2022-07-26T22:45:55.404Z,8.06181
2022-07-26T22:50:56.911Z,8.27188
2022-07-26T22:55:58.647Z,7.680086
2022-07-26T23:01:00.301Z,7.188586
2022-07-26T23:06:01.784Z,8.109032
2022-07-26T23:11:03.911Z,8.131544
2022-07-26T23:16:05.443Z,7.985754
2022-07-26T23:21:07.089Z,7.505324
2022-07-26T23:26:08.777Z,8.220372
2022-07-26T23:31:10.420Z,7.486912
2022-07-26T23:36:12.024Z,7.672868
2022-07-26T23:41:13.509Z,6.673024
2022-07-26T23:46:15.101Z,7.75936
2022-07-26T23:51:16.823Z,7.362342
2022-07-26T23:56:18.657Z,7.231274
